Time;durP1;ratioP1;P1;durP2;ratioP2;P2;SDS_P1;SDS_P2;PMS_P1;PMS_P2;Temp;Humidity;BMP_temperature;BMP_pressure;BME280_temperature;BME280_humidity;BME280_pressure;Samples;Min_cycle;Max_cycle;Signal;HPM_P1;HPM_P2
2023/04/28 09:11:54;;;;;;;4.40;3.40;;;;;;;14.48;90.73;98820.67;80091;1299;3013225;-64
2023/04/28 09:14:22;;;;;;;4.30;3.10;;;;;;;14.05;92.42;98831.02;77951;1301;3052198;-63
2023/04/28 09:16:50;;;;;;;3.60;2.10;;;;;;;14.03;92.69;98832.30;79211;1304;3013172;-63
2023/04/28 09:19:17;;;;;;;5.30;2.80;;;;;;;14.35;91.66;98832.92;79123;1301;3013044;-64
2023/04/28 09:21:51;;;;;;;3.80;3.00;;;;;;;14.75;89.10;98837.59;77884;1304;3069149;-64
2023/04/28 09:24:41;;;;;;;6.40;3.10;;;;;;;14.52;89.27;98834.23;77453;1299;3013747;-64
2023/04/28 09:27:10;;;;;;;4.30;2.90;;;;;;;14.29;90.40;98844.28;78197;1301;3050019;-63
2023/04/28 09:29:37;;;;;;;3.80;2.90;;;;;;;14.20;91.24;98842.64;79426;1299;3013810;-63
2023/04/28 09:32:17;;;;;;;3.00;2.00;;;;;;;14.23;91.27;98843.02;79244;1298;3011765;-63
2023/04/28 09:34:46;;;;;;;4.70;2.40;;;;;;;14.54;90.07;98840.02;77979;1302;3049792;-63
2023/04/28 09:37:17;;;;;;;3.40;2.20;;;;;;;14.94;88.07;98837.88;79342;1303;3011820;-63
2023/04/28 09:39:46;;;;;;;4.60;2.70;;;;;;;14.79;87.90;98836.82;78099;1302;3051632;-63
2023/04/28 09:42:33;;;;;;;5.10;3.00;;;;;;;14.35;90.02;98838.91;79412;1299;3014443;-63
2023/04/28 09:45:05;;;;;;;4.70;2.70;;;;;;;14.13;91.63;98828.58;78069;1300;3056116;-62
2023/04/28 09:47:34;;;;;;;3.50;2.40;;;;;;;14.06;92.14;98831.67;79474;1299;3011862;-63
2023/04/28 09:50:08;;;;;;;3.90;2.10;;;;;;;14.43;91.99;98832.89;78082;1299;3053193;-63
2023/04/28 09:52:35;;;;;;;2.50;2.10;;;;;;;14.87;89.16;98841.05;79483;1299;3011834;-64
2023/04/28 09:55:05;;;;;;;3.50;2.80;;;;;;;14.93;88.31;98835.99;78235;1301;3053293;-63
2023/04/28 09:57:33;;;;;;;4.20;2.90;;;;;;;14.59;89.49;98844.38;79407;1301;3013720;-63
2023/04/28 10:00:05;;;;;;;5.20;3.20;;;;;;;14.29;90.81;98840.47;78888;1301;3011567;-64
2023/04/28 10:02:36;;;;;;;2.90;1.60;;;;;;;14.06;92.85;98840.48;79519;1301;3013233;-63
2023/04/28 10:05:07;;;;;;;3.10;2.00;;;;;;;14.36;91.47;98843.92;78249;1300;3056640;-65
2023/04/28 10:07:34;;;;;;;3.80;2.40;;;;;;;14.49;90.25;98850.37;79421;1302;3013033;-64
2023/04/28 10:10:03;;;;;;;4.40;2.10;;;;;;;14.33;90.87;98842.77;78188;1298;3028422;-64
2023/04/28 10:12:30;;;;;;;5.00;2.80;;;;;;;14.01;92.26;98846.21;79345;1301;3013047;-64
2023/04/28 10:14:57;;;;;;;6.70;3.00;;;;;;;13.80;93.91;98840.48;79384;1299;3011630;-63
2023/04/28 10:17:27;;;;;;;4.40;2.30;;;;;;;13.58;95.59;98838.86;78084;1301;3069323;-64
2023/04/28 10:19:53;;;;;;;3.90;2.20;;;;;;;13.87;94.50;98834.30;79285;1299;3013467;-64
2023/04/28 10:22:49;;;;;;;3.10;2.00;;;;;;;13.92;93.63;98833.84;79390;1298;3011446;-61
2023/04/28 10:25:27;;;;;;;3.80;2.70;;;;;;;13.73;94.22;98841.79;78166;1301;3053253;-60
2023/04/28 10:27:55;;;;;;;4.20;2.50;;;;;;;13.55;95.51;98835.08;77972;1301;3050329;-62
2023/04/28 10:30:22;;;;;;;3.20;2.10;;;;;;;13.29;96.84;98835.06;79155;1305;3012714;-63
2023/04/28 10:33:08;;;;;;;2.20;1.60;;;;;;;13.53;96.65;98833.09;79225;1301;3011823;-62
2023/04/28 10:35:36;;;;;;;3.00;2.00;;;;;;;13.64;94.84;98830.06;78287;1300;3051506;-62
2023/04/28 10:38:09;;;;;;;2.30;1.60;;;;;;;13.47;95.52;98833.38;79385;1301;3012870;-63
2023/04/28 10:40:44;;;;;;;2.80;2.00;;;;;;;13.31;96.61;98826.58;78192;1299;3052185;-63
2023/04/28 10:43:14;;;;;;;4.80;1.60;;;;;;;13.23;97.37;98833.41;78654;1300;3012859;-64
2023/04/28 10:45:53;;;;;;;2.50;1.60;;;;;;;13.59;96.42;98820.81;79272;1304;3015519;-63
2023/04/28 10:48:22;;;;;;;2.40;1.80;;;;;;;13.72;94.43;98810.58;78162;1301;3052962;-62
2023/04/28 10:51:08;;;;;;;2.60;1.70;;;;;;;13.51;94.58;98817.98;79327;1299;3015525;-63
2023/04/28 10:53:45;;;;;;;2.90;1.60;;;;;;;13.16;96.15;98822.86;78164;1301;3057371;-64
2023/04/28 10:56:17;;;;;;;2.40;1.40;;;;;;;12.99;97.68;98830.39;78034;1299;3050302;-61
2023/04/28 10:58:45;;;;;;;2.80;1.70;;;;;;;13.42;97.04;98816.55;79344;1299;3011784;-64
2023/04/28 11:01:18;;;;;;;3.70;1.80;;;;;;;13.76;94.85;98801.79;78294;1301;3049459;-63
2023/04/28 11:03:45;;;;;;;6.10;2.10;;;;;;;13.58;94.54;98811.55;79341;1299;3013105;-60
2023/04/28 11:06:27;;;;;;;4.00;2.20;;;;;;;13.40;94.98;98811.81;78270;1302;3053315;-63
2023/04/28 11:08:56;;;;;;;1.90;1.40;;;;;;;13.17;95.81;98813.16;78150;1297;3069201;-63
2023/04/28 11:11:29;;;;;;;2.10;1.30;;;;;;;13.50;95.23;98798.84;79350;1301;3013788;-64
2023/04/28 11:14:15;;;;;;;;;;;;;;;13.64;93.94;98803.49;77966;1300;3049538;-63
2023/04/28 11:16:59;;;;;;;4.50;1.70;;;;;;;13.37;93.88;98799.77;77986;1299;3053881;-64
2023/04/28 11:19:32;;;;;;;3.20;1.70;;;;;;;13.24;95.03;98796.77;78164;1297;3049733;-64
2023/04/28 11:22:00;;;;;;;1.90;1.10;;;;;;;13.22;95.83;98802.77;79362;1299;3013986;-68
2023/04/28 11:24:28;;;;;;;1.20;1.10;;;;;;;13.52;94.56;98792.52;78021;1301;3052463;-64
2023/04/28 11:26:55;;;;;;;2.60;1.40;;;;;;;13.65;92.13;98782.80;79431;1301;3013647;-63
2023/04/28 11:29:42;;;;;;;3.30;2.10;;;;;;;13.62;92.37;98780.76;79157;1299;3011688;-63
2023/04/28 11:32:10;;;;;;;2.40;1.40;;;;;;;13.51;92.63;98778.35;78051;1301;3052710;-64
2023/04/28 11:34:36;;;;;;;2.50;1.50;;;;;;;13.22;93.78;98772.29;79464;1301;3013869;-63
2023/04/28 11:37:05;;;;;;;2.30;1.20;;;;;;;13.01;95.35;98783.63;79244;1299;3013627;-61
2023/04/28 11:39:34;;;;;;;2.50;1.40;;;;;;;13.46;94.54;98772.11;78108;1301;3052173;-62
2023/04/28 11:42:01;;;;;;;2.60;1.30;;;;;;;13.52;92.57;98766.49;79330;1301;3018570;-63
2023/04/28 11:44:29;;;;;;;4.50;1.70;;;;;;;13.45;92.83;98768.48;79179;1297;3011594;-63
2023/04/28 11:47:01;;;;;;;3.20;1.50;;;;;;;13.17;93.43;98766.55;78149;1297;3048433;-62
2023/04/28 11:49:49;;;;;;;1.60;1.10;;;;;;;12.85;95.25;98763.35;79299;1301;3011512;-62
2023/04/28 11:52:17;;;;;;;1.20;1.10;;;;;;;13.11;95.14;98762.61;78044;1301;3050742;-62
2023/04/28 11:54:43;;;;;;;1.50;1.10;;;;;;;13.45;92.28;98754.96;79227;1311;3020669;-63
2023/04/28 11:57:17;;;;;;;2.30;1.70;;;;;;;13.30;92.36;98760.58;79152;1297;3012101;-65
2023/04/28 11:59:45;;;;;;;2.00;1.50;;;;;;;13.10;92.38;98754.47;78023;1301;3050086;-63
2023/04/28 12:02:11;;;;;;;6.40;1.70;;;;;;;12.91;93.39;98750.92;79301;1301;3013293;-61
2023/04/28 12:04:40;;;;;;;1.70;1.10;;;;;;;12.70;95.11;98757.52;79240;1299;3011433;-63
2023/04/28 12:07:12;;;;;;;1.50;1.10;;;;;;;13.04;93.88;98751.09;78190;1301;3050015;-63
2023/04/28 12:09:40;;;;;;;2.50;1.40;;;;;;;13.20;92.60;98756.48;79243;1302;3011820;-65
2023/04/28 12:12:10;;;;;;;2.10;1.30;;;;;;;13.09;93.19;98747.52;77986;1301;3052197;-63
2023/04/28 12:14:58;;;;;;;2.20;1.40;;;;;;;12.88;94.06;98752.40;79460;1301;3011646;-63
2023/04/28 12:17:44;;;;;;;2.10;1.20;;;;;;;12.75;95.66;98748.18;78155;1302;3051268;-62
2023/04/28 12:20:36;;;;;;;3.20;1.60;;;;;;;13.31;94.00;98742.75;78019;1301;3056757;-64
2023/04/28 12:23:04;;;;;;;1.50;1.20;;;;;;;13.31;92.15;98754.98;78123;1301;3049380;-63
2023/04/28 12:25:33;;;;;;;1.70;1.20;;;;;;;12.90;92.91;98753.98;79297;1299;3014396;-63
2023/04/28 23:11:29;;;;;;;1.00;0.90;;;;;;;9.60;94.72;98833.40;80338;1299;3013150;-76
2023/04/28 23:13:56;;;;;;;0.70;0.50;;;;;;;9.37;95.57;98842.63;79228;1304;3013285;-72
2023/04/28 23:16:23;;;;;;;0.40;0.30;;;;;;;9.18;96.47;98853.65;79480;1304;3011885;-72
2023/04/28 23:18:50;;;;;;;0.90;0.50;;;;;;;9.61;96.08;98851.69;78131;1304;3026701;-71
2023/04/28 23:21:17;;;;;;;4.40;0.50;;;;;;;10.00;93.78;98848.23;79377;1299;3013360;-68
2023/04/28 23:23:45;;;;;;;0.90;0.60;;;;;;;9.99;92.52;98855.48;78584;1299;3011486;-70
2023/04/28 23:26:13;;;;;;;2.30;0.50;;;;;;;9.96;92.80;98851.65;78258;1295;3050010;-69
2023/04/28 23:28:40;;;;;;;0.80;0.70;;;;;;;9.65;93.77;98852.54;79508;1300;3019340;-74
2023/04/28 23:31:06;;;;;;;0.90;0.70;;;;;;;9.43;94.77;98848.17;79508;1299;3013303;-70
2023/04/28 23:33:34;;;;;;;0.40;0.40;;;;;;;9.14;96.38;98834.83;78356;1301;3026308;-69
2023/04/28 23:36:00;;;;;;;0.60;0.40;;;;;;;9.48;96.26;98824.94;79388;1295;3018521;-72
2023/04/28 23:38:27;;;;;;;1.00;0.60;;;;;;;9.77;94.52;98825.10;79537;1296;3011643;-72
2023/04/28 23:40:54;;;;;;;0.60;0.40;;;;;;;9.77;93.78;98839.61;78267;1295;3026362;-75
2023/04/28 23:43:21;;;;;;;0.60;0.60;;;;;;;9.64;94.05;98843.14;79413;1301;3013051;-67
2023/04/28 23:45:47;;;;;;;1.40;0.80;;;;;;;9.43;95.02;98845.36;79465;1296;3011674;-70
2023/04/28 23:48:15;;;;;;;0.70;0.50;;;;;;;9.35;95.59;98843.83;78358;1300;3026144;-77
2023/04/28 23:50:41;;;;;;;1.20;0.60;;;;;;;9.56;95.22;98839.11;79423;1296;3013901;-74
2023/04/28 23:53:08;;;;;;;1.40;0.90;;;;;;;9.89;93.44;98842.71;79709;1298;3011588;-72
2023/04/28 23:55:37;;;;;;;2.80;1.00;;;;;;;9.77;93.01;98846.43;78518;1296;3025969;-72
2023/04/28 23:58:03;;;;;;;2.60;0.60;;;;;;;9.58;93.84;98842.12;79772;1298;3018476;-76
